sensor_id;sensor_type;location;lat;lon;timestamp;P1;durP1;ratioP1;P2;durP2;ratioP2
24407;SDS011;12542;50.924;4.516;2023-04-24T00:00:15;22.48;;;11.93;;
24407;SDS011;12542;50.924;4.516;2023-04-24T00:02:42;24.23;;;12.40;;
24407;SDS011;12542;50.924;4.516;2023-04-24T00:05:13;17.88;;;11.80;;
24407;SDS011;12542;50.924;4.516;2023-04-24T00:07:43;23.92;;;12.88;;
24407;SDS011;12542;50.924;4.516;2023-04-24T00:10:10;25.95;;;11.95;;
24407;SDS011;12542;50.924;4.516;2023-04-24T00:12:37;25.48;;;11.90;;
24407;SDS011;12542;50.924;4.516;2023-04-24T00:15:03;24.05;;;12.75;;
24407;SDS011;12542;50.924;4.516;2023-04-24T00:17:29;25.35;;;12.38;;
24407;SDS011;12542;50.924;4.516;2023-04-24T00:19:56;25.85;;;12.20;;
24407;SDS011;12542;50.924;4.516;2023-04-24T00:22:27;29.77;;;11.90;;
24407;SDS011;12542;50.924;4.516;2023-04-24T00:24:53;22.20;;;11.35;;
24407;SDS011;12542;50.924;4.516;2023-04-24T00:27:20;23.30;;;11.52;;
24407;SDS011;12542;50.924;4.516;2023-04-24T00:29:45;19.50;;;11.10;;
24407;SDS011;12542;50.924;4.516;2023-04-24T00:32:11;22.05;;;11.00;;
24407;SDS011;12542;50.924;4.516;2023-04-24T00:34:37;25.13;;;10.73;;
24407;SDS011;12542;50.924;4.516;2023-04-24T00:37:05;19.98;;;11.13;;
24407;SDS011;12542;50.924;4.516;2023-04-24T00:39:31;19.65;;;10.88;;
24407;SDS011;12542;50.924;4.516;2023-04-24T00:41:57;19.30;;;10.05;;
24407;SDS011;12542;50.924;4.516;2023-04-24T00:44:22;16.98;;;10.48;;
24407;SDS011;12542;50.924;4.516;2023-04-24T00:46:49;21.73;;;10.30;;
24407;SDS011;12542;50.924;4.516;2023-04-24T00:49:19;19.90;;;9.55;;
24407;SDS011;12542;50.924;4.516;2023-04-24T00:51:45;24.13;;;11.70;;
24407;SDS011;12542;50.924;4.516;2023-04-24T00:54:12;21.70;;;11.02;;
24407;SDS011;12542;50.924;4.516;2023-04-24T00:56:39;21.95;;;10.82;;
24407;SDS011;12542;50.924;4.516;2023-04-24T00:59:06;23.98;;;11.90;;
24407;SDS011;12542;50.924;4.516;2023-04-24T01:01:32;22.65;;;11.75;;
24407;SDS011;12542;50.924;4.516;2023-04-24T01:03:58;24.90;;;11.85;;
24407;SDS011;12542;50.924;4.516;2023-04-24T01:06:27;17.58;;;10.68;;
24407;SDS011;12542;50.924;4.516;2023-04-24T01:08:54;20.50;;;10.95;;
24407;SDS011;12542;50.924;4.516;2023-04-24T01:11:23;18.63;;;10.98;;
24407;SDS011;12542;50.924;4.516;2023-04-24T01:13:49;19.63;;;11.40;;
24407;SDS011;12542;50.924;4.516;2023-04-24T01:16:15;23.13;;;11.48;;
24407;SDS011;12542;50.924;4.516;2023-04-24T01:18:42;25.27;;;10.50;;
24407;SDS011;12542;50.924;4.516;2023-04-24T01:21:09;21.05;;;10.38;;
24407;SDS011;12542;50.924;4.516;2023-04-24T01:23:38;19.63;;;10.43;;
24407;SDS011;12542;50.924;4.516;2023-04-24T01:26:04;23.00;;;11.65;;
24407;SDS011;12542;50.924;4.516;2023-04-24T01:28:30;19.13;;;11.80;;
24407;SDS011;12542;50.924;4.516;2023-04-24T01:30:57;22.95;;;12.35;;
24407;SDS011;12542;50.924;4.516;2023-04-24T01:33:24;22.45;;;10.65;;
24407;SDS011;12542;50.924;4.516;2023-04-24T01:35:51;24.27;;;11.10;;
24407;SDS011;12542;50.924;4.516;2023-04-24T01:38:17;18.42;;;11.18;;
24407;SDS011;12542;50.924;4.516;2023-04-24T01:40:43;21.17;;;10.60;;
24407;SDS011;12542;50.924;4.516;2023-04-24T01:43:08;25.52;;;11.15;;
24407;SDS011;12542;50.924;4.516;2023-04-24T01:45:34;18.42;;;10.57;;
24407;SDS011;12542;50.924;4.516;2023-04-24T01:48:00;19.70;;;10.75;;
24407;SDS011;12542;50.924;4.516;2023-04-24T01:50:26;20.20;;;10.88;;
24407;SDS011;12542;50.924;4.516;2023-04-24T01:52:52;18.30;;;10.90;;
24407;SDS011;12542;50.924;4.516;2023-04-24T01:55:18;17.05;;;9.90;;
24407;SDS011;12542;50.924;4.516;2023-04-24T01:57:43;17.55;;;9.70;;
24407;SDS011;12542;50.924;4.516;2023-04-24T02:00:10;14.60;;;8.82;;
24407;SDS011;12542;50.924;4.516;2023-04-24T02:02:37;15.00;;;8.20;;
24407;SDS011;12542;50.924;4.516;2023-04-24T02:05:05;14.90;;;7.80;;
24407;SDS011;12542;50.924;4.516;2023-04-24T02:07:32;15.13;;;7.82;;
24407;SDS011;12542;50.924;4.516;2023-04-24T02:09:58;13.93;;;7.13;;
24407;SDS011;12542;50.924;4.516;2023-04-24T02:12:24;10.90;;;7.18;;
24407;SDS011;12542;50.924;4.516;2023-04-24T02:14:50;13.52;;;7.63;;
24407;SDS011;12542;50.924;4.516;2023-04-24T02:17:18;24.25;;;8.43;;
24407;SDS011;12542;50.924;4.516;2023-04-24T02:19:44;19.10;;;8.35;;
24407;SDS011;12542;50.924;4.516;2023-04-24T02:22:11;15.52;;;8.27;;
24407;SDS011;12542;50.924;4.516;2023-04-24T02:24:37;18.77;;;9.82;;
24407;SDS011;12542;50.924;4.516;2023-04-24T02:27:04;17.95;;;8.27;;
24407;SDS011;12542;50.924;4.516;2023-04-24T02:29:30;18.73;;;8.82;;
24407;SDS011;12542;50.924;4.516;2023-04-24T02:31:56;16.95;;;8.57;;
24407;SDS011;12542;50.924;4.516;2023-04-24T02:34:25;16.10;;;8.80;;
24407;SDS011;12542;50.924;4.516;2023-04-24T02:36:50;18.33;;;9.02;;
24407;SDS011;12542;50.924;4.516;2023-04-24T02:39:18;16.25;;;8.90;;
24407;SDS011;12542;50.924;4.516;2023-04-24T02:41:45;14.75;;;9.48;;
24407;SDS011;12542;50.924;4.516;2023-04-24T02:44:10;18.65;;;9.98;;
24407;SDS011;12542;50.924;4.516;2023-04-24T02:46:36;13.88;;;9.07;;
24407;SDS011;12542;50.924;4.516;2023-04-24T02:49:02;14.73;;;8.95;;
24407;SDS011;12542;50.924;4.516;2023-04-24T02:51:28;13.70;;;8.60;;
24407;SDS011;12542;50.924;4.516;2023-04-24T02:53:54;17.90;;;9.48;;
24407;SDS011;12542;50.924;4.516;2023-04-24T02:56:20;17.80;;;9.25;;
24407;SDS011;12542;50.924;4.516;2023-04-24T02:58:45;16.65;;;9.52;;
24407;SDS011;12542;50.924;4.516;2023-04-24T03:01:11;16.27;;;9.57;;
24407;SDS011;12542;50.924;4.516;2023-04-24T03:03:38;16.40;;;10.23;;
24407;SDS011;12542;50.924;4.516;2023-04-24T03:06:04;16.55;;;9.82;;
24407;SDS011;12542;50.924;4.516;2023-04-24T03:08:31;15.00;;;9.73;;
24407;SDS011;12542;50.924;4.516;2023-04-24T03:10:57;20.25;;;10.38;;
24407;SDS011;12542;50.924;4.516;2023-04-24T03:13:23;16.33;;;9.18;;
24407;SDS011;12542;50.924;4.516;2023-04-24T03:15:49;17.33;;;10.77;;
24407;SDS011;12542;50.924;4.516;2023-04-24T03:18:14;15.85;;;9.18;;
24407;SDS011;12542;50.924;4.516;2023-04-24T03:20:40;16.83;;;9.88;;
24407;SDS011;12542;50.924;4.516;2023-04-24T03:23:06;14.85;;;9.35;;
24407;SDS011;12542;50.924;4.516;2023-04-24T03:25:33;18.02;;;10.07;;
24407;SDS011;12542;50.924;4.516;2023-04-24T03:27:58;20.00;;;9.90;;
24407;SDS011;12542;50.924;4.516;2023-04-24T03:30:24;12.85;;;8.68;;
24407;SDS011;12542;50.924;4.516;2023-04-24T03:32:50;15.18;;;8.50;;
24407;SDS011;12542;50.924;4.516;2023-04-24T03:35:15;14.13;;;8.05;;
24407;SDS011;12542;50.924;4.516;2023-04-24T03:37:44;14.38;;;7.60;;
24407;SDS011;12542;50.924;4.516;2023-04-24T03:40:10;15.25;;;7.97;;
24407;SDS011;12542;50.924;4.516;2023-04-24T03:42:38;11.20;;;7.78;;
24407;SDS011;12542;50.924;4.516;2023-04-24T03:45:04;16.25;;;8.48;;
24407;SDS011;12542;50.924;4.516;2023-04-24T03:47:32;13.02;;;7.95;;
24407;SDS011;12542;50.924;4.516;2023-04-24T03:49:58;15.63;;;8.55;;
24407;SDS011;12542;50.924;4.516;2023-04-24T03:52:24;12.82;;;7.75;;
24407;SDS011;12542;50.924;4.516;2023-04-24T03:54:50;9.45;;;6.63;;
24407;SDS011;12542;50.924;4.516;2023-04-24T03:57:15;11.05;;;6.75;;
24407;SDS011;12542;50.924;4.516;2023-04-24T03:59:41;12.32;;;6.97;;
24407;SDS011;12542;50.924;4.516;2023-04-24T04:02:09;12.35;;;6.38;;
24407;SDS011;12542;50.924;4.516;2023-04-24T04:04:35;11.50;;;6.00;;
24407;SDS011;12542;50.924;4.516;2023-04-24T04:07:00;9.48;;;5.85;;
24407;SDS011;12542;50.924;4.516;2023-04-24T04:09:27;10.93;;;6.25;;
24407;SDS011;12542;50.924;4.516;2023-04-24T04:11:54;7.47;;;5.35;;
24407;SDS011;12542;50.924;4.516;2023-04-24T04:14:20;10.85;;;5.72;;
24407;SDS011;12542;50.924;4.516;2023-04-24T04:16:46;9.63;;;5.93;;
24407;SDS011;12542;50.924;4.516;2023-04-24T04:19:12;10.48;;;5.43;;
24407;SDS011;12542;50.924;4.516;2023-04-24T04:21:38;10.65;;;6.03;;
24407;SDS011;12542;50.924;4.516;2023-04-24T04:24:03;10.98;;;5.35;;
24407;SDS011;12542;50.924;4.516;2023-04-24T04:26:30;8.30;;;4.82;;
24407;SDS011;12542;50.924;4.516;2023-04-24T04:28:58;7.32;;;4.88;;
24407;SDS011;12542;50.924;4.516;2023-04-24T04:31:25;9.27;;;4.63;;
24407;SDS011;12542;50.924;4.516;2023-04-24T04:33:51;6.43;;;4.18;;
24407;SDS011;12542;50.924;4.516;2023-04-24T04:36:17;8.48;;;4.63;;
24407;SDS011;12542;50.924;4.516;2023-04-24T04:38:43;5.60;;;3.83;;
24407;SDS011;12542;50.924;4.516;2023-04-24T04:41:10;7.90;;;4.20;;
24407;SDS011;12542;50.924;4.516;2023-04-24T04:43:36;7.82;;;4.07;;
24407;SDS011;12542;50.924;4.516;2023-04-24T04:46:04;8.50;;;5.07;;
24407;SDS011;12542;50.924;4.516;2023-04-24T04:48:30;13.10;;;6.20;;
24407;SDS011;12542;50.924;4.516;2023-04-24T04:50:56;10.00;;;5.88;;
24407;SDS011;12542;50.924;4.516;2023-04-24T04:53:23;10.18;;;6.72;;
24407;SDS011;12542;50.924;4.516;2023-04-24T04:55:48;13.57;;;7.15;;
24407;SDS011;12542;50.924;4.516;2023-04-24T04:58:14;12.18;;;7.00;;
24407;SDS011;12542;50.924;4.516;2023-04-24T05:00:40;13.88;;;7.63;;
24407;SDS011;12542;50.924;4.516;2023-04-24T05:03:06;12.90;;;8.18;;
24407;SDS011;12542;50.924;4.516;2023-04-24T05:05:32;12.65;;;8.23;;
24407;SDS011;12542;50.924;4.516;2023-04-24T05:07:58;16.08;;;8.15;;
24407;SDS011;12542;50.924;4.516;2023-04-24T05:10:23;13.05;;;8.30;;
24407;SDS011;12542;50.924;4.516;2023-04-24T05:12:49;15.93;;;8.45;;
24407;SDS011;12542;50.924;4.516;2023-04-24T05:15:15;12.65;;;8.10;;
24407;SDS011;12542;50.924;4.516;2023-04-24T05:17:40;14.75;;;8.23;;
24407;SDS011;12542;50.924;4.516;2023-04-24T05:20:06;13.45;;;7.97;;
24407;SDS011;12542;50.924;4.516;2023-04-24T05:22:33;11.73;;;7.72;;
24407;SDS011;12542;50.924;4.516;2023-04-24T05:24:58;19.33;;;8.65;;
24407;SDS011;12542;50.924;4.516;2023-04-24T05:27:24;19.60;;;8.30;;
24407;SDS011;12542;50.924;4.516;2023-04-24T05:29:50;15.32;;;8.50;;
24407;SDS011;12542;50.924;4.516;2023-04-24T05:32:16;15.35;;;8.45;;
24407;SDS011;12542;50.924;4.516;2023-04-24T05:34:44;13.38;;;8.68;;
24407;SDS011;12542;50.924;4.516;2023-04-24T05:37:10;16.45;;;8.70;;
24407;SDS011;12542;50.924;4.516;2023-04-24T05:39:35;19.60;;;8.68;;
24407;SDS011;12542;50.924;4.516;2023-04-24T05:42:01;14.82;;;8.35;;
24407;SDS011;12542;50.924;4.516;2023-04-24T05:44:29;19.00;;;8.25;;
24407;SDS011;12542;50.924;4.516;2023-04-24T05:46:55;16.55;;;9.45;;
24407;SDS011;12542;50.924;4.516;2023-04-24T05:49:21;15.98;;;9.60;;
24407;SDS011;12542;50.924;4.516;2023-04-24T05:51:47;19.38;;;9.75;;
24407;SDS011;12542;50.924;4.516;2023-04-24T05:54:15;15.32;;;8.75;;
24407;SDS011;12542;50.924;4.516;2023-04-24T05:56:41;20.02;;;9.27;;
24407;SDS011;12542;50.924;4.516;2023-04-24T05:59:07;18.92;;;10.02;;
24407;SDS011;12542;50.924;4.516;2023-04-24T06:01:34;17.52;;;8.70;;
24407;SDS011;12542;50.924;4.516;2023-04-24T06:04:01;18.90;;;10.55;;
24407;SDS011;12542;50.924;4.516;2023-04-24T06:06:28;18.88;;;10.35;;
24407;SDS011;12542;50.924;4.516;2023-04-24T06:08:54;22.00;;;9.77;;
24407;SDS011;12542;50.924;4.516;2023-04-24T06:11:20;17.55;;;9.27;;
24407;SDS011;12542;50.924;4.516;2023-04-24T06:13:46;16.50;;;9.27;;
24407;SDS011;12542;50.924;4.516;2023-04-24T06:16:12;16.55;;;9.93;;
24407;SDS011;12542;50.924;4.516;2023-04-24T06:18:38;22.65;;;9.95;;
24407;SDS011;12542;50.924;4.516;2023-04-24T06:21:04;17.98;;;10.27;;
24407;SDS011;12542;50.924;4.516;2023-04-24T06:23:30;16.42;;;9.75;;
24407;SDS011;12542;50.924;4.516;2023-04-24T06:25:57;17.48;;;10.55;;
24407;SDS011;12542;50.924;4.516;2023-04-24T06:28:24;20.30;;;11.18;;
24407;SDS011;12542;50.924;4.516;2023-04-24T06:30:50;21.35;;;10.40;;
24407;SDS011;12542;50.924;4.516;2023-04-24T06:33:16;27.58;;;11.90;;
24407;SDS011;12542;50.924;4.516;2023-04-24T06:35:41;21.02;;;11.68;;
24407;SDS011;12542;50.924;4.516;2023-04-24T06:38:07;18.33;;;9.75;;
24407;SDS011;12542;50.924;4.516;2023-04-24T06:40:33;27.50;;;11.52;;
24407;SDS011;12542;50.924;4.516;2023-04-24T06:42:59;23.38;;;12.35;;
24407;SDS011;12542;50.924;4.516;2023-04-24T06:45:27;23.35;;;10.80;;
24407;SDS011;12542;50.924;4.516;2023-04-24T06:47:56;20.95;;;10.88;;
24407;SDS011;12542;50.924;4.516;2023-04-24T06:50:22;25.25;;;12.57;;
24407;SDS011;12542;50.924;4.516;2023-04-24T06:52:50;26.23;;;11.98;;
24407;SDS011;12542;50.924;4.516;2023-04-24T06:55:16;22.02;;;11.25;;
24407;SDS011;12542;50.924;4.516;2023-04-24T06:57:41;24.80;;;12.43;;
24407;SDS011;12542;50.924;4.516;2023-04-24T07:00:07;26.50;;;13.70;;
24407;SDS011;12542;50.924;4.516;2023-04-24T07:02:34;22.45;;;13.63;;
24407;SDS011;12542;50.924;4.516;2023-04-24T07:05:00;25.15;;;12.77;;
24407;SDS011;12542;50.924;4.516;2023-04-24T07:07:28;24.75;;;12.93;;
24407;SDS011;12542;50.924;4.516;2023-04-24T07:09:54;25.10;;;12.85;;
24407;SDS011;12542;50.924;4.516;2023-04-24T07:12:21;27.50;;;12.27;;
24407;SDS011;12542;50.924;4.516;2023-04-24T07:14:47;23.70;;;13.18;;
24407;SDS011;12542;50.924;4.516;2023-04-24T07:17:13;25.83;;;12.18;;
24407;SDS011;12542;50.924;4.516;2023-04-24T07:19:39;29.70;;;14.02;;
24407;SDS011;12542;50.924;4.516;2023-04-24T07:22:05;26.38;;;13.13;;
24407;SDS011;12542;50.924;4.516;2023-04-24T07:24:31;23.95;;;13.07;;
24407;SDS011;12542;50.924;4.516;2023-04-24T07:26:57;25.52;;;12.75;;
24407;SDS011;12542;50.924;4.516;2023-04-24T07:29:23;24.95;;;12.65;;
24407;SDS011;12542;50.924;4.516;2023-04-24T07:31:49;25.83;;;13.85;;
24407;SDS011;12542;50.924;4.516;2023-04-24T07:34:15;29.38;;;13.25;;
24407;SDS011;12542;50.924;4.516;2023-04-24T07:36:41;28.42;;;12.57;;
24407;SDS011;12542;50.924;4.516;2023-04-24T07:39:07;24.77;;;12.98;;
24407;SDS011;12542;50.924;4.516;2023-04-24T07:41:33;23.27;;;12.15;;
24407;SDS011;12542;50.924;4.516;2023-04-24T07:43:59;28.10;;;12.55;;
24407;SDS011;12542;50.924;4.516;2023-04-24T07:46:25;28.95;;;12.18;;
24407;SDS011;12542;50.924;4.516;2023-04-24T07:48:52;25.50;;;11.68;;
24407;SDS011;12542;50.924;4.516;2023-04-24T07:51:18;26.60;;;12.18;;
24407;SDS011;12542;50.924;4.516;2023-04-24T07:53:44;19.98;;;11.60;;
24407;SDS011;12542;50.924;4.516;2023-04-24T07:56:10;25.45;;;11.75;;
24407;SDS011;12542;50.924;4.516;2023-04-24T07:58:36;21.38;;;11.10;;
24407;SDS011;12542;50.924;4.516;2023-04-24T08:01:02;23.70;;;10.35;;
24407;SDS011;12542;50.924;4.516;2023-04-24T08:03:28;20.92;;;10.10;;
24407;SDS011;12542;50.924;4.516;2023-04-24T08:05:53;22.10;;;9.10;;
24407;SDS011;12542;50.924;4.516;2023-04-24T08:08:20;17.73;;;8.55;;
24407;SDS011;12542;50.924;4.516;2023-04-24T08:10:47;18.75;;;8.45;;
24407;SDS011;12542;50.924;4.516;2023-04-24T08:13:13;15.48;;;6.80;;
24407;SDS011;12542;50.924;4.516;2023-04-24T08:15:38;13.77;;;7.35;;
24407;SDS011;12542;50.924;4.516;2023-04-24T08:18:04;12.85;;;6.38;;
24407;SDS011;12542;50.924;4.516;2023-04-24T08:20:30;15.05;;;6.25;;
24407;SDS011;12542;50.924;4.516;2023-04-24T08:22:58;13.77;;;6.80;;
24407;SDS011;12542;50.924;4.516;2023-04-24T08:25:24;18.10;;;7.30;;
24407;SDS011;12542;50.924;4.516;2023-04-24T08:27:52;20.77;;;8.88;;
24407;SDS011;12542;50.924;4.516;2023-04-24T08:30:19;18.20;;;8.68;;
24407;SDS011;12542;50.924;4.516;2023-04-24T08:32:47;22.23;;;9.25;;
24407;SDS011;12542;50.924;4.516;2023-04-24T08:35:13;19.60;;;8.65;;
24407;SDS011;12542;50.924;4.516;2023-04-24T08:37:38;22.35;;;9.05;;
24407;SDS011;12542;50.924;4.516;2023-04-24T08:40:14;19.25;;;8.27;;
24407;SDS011;12542;50.924;4.516;2023-04-24T08:42:41;15.48;;;8.32;;
24407;SDS011;12542;50.924;4.516;2023-04-24T08:45:09;22.15;;;7.57;;
24407;SDS011;12542;50.924;4.516;2023-04-24T08:47:36;17.67;;;7.20;;
24407;SDS011;12542;50.924;4.516;2023-04-24T08:50:04;16.00;;;6.97;;
24407;SDS011;12542;50.924;4.516;2023-04-24T08:52:32;18.42;;;6.28;;
24407;SDS011;12542;50.924;4.516;2023-04-24T08:54:58;19.50;;;6.00;;
24407;SDS011;12542;50.924;4.516;2023-04-24T08:57:26;18.48;;;5.68;;
24407;SDS011;12542;50.924;4.516;2023-04-24T08:59:52;20.23;;;6.05;;
24407;SDS011;12542;50.924;4.516;2023-04-24T09:02:21;19.05;;;6.57;;
24407;SDS011;12542;50.924;4.516;2023-04-24T09:04:48;14.25;;;6.30;;
24407;SDS011;12542;50.924;4.516;2023-04-24T09:07:14;19.27;;;6.32;;
24407;SDS011;12542;50.924;4.516;2023-04-24T09:09:45;16.05;;;6.55;;
24407;SDS011;12542;50.924;4.516;2023-04-24T09:12:11;21.80;;;7.30;;
24407;SDS011;12542;50.924;4.516;2023-04-24T09:14:37;19.63;;;6.30;;
24407;SDS011;12542;50.924;4.516;2023-04-24T09:17:07;15.18;;;5.93;;
24407;SDS011;12542;50.924;4.516;2023-04-24T09:19:33;14.80;;;5.32;;
24407;SDS011;12542;50.924;4.516;2023-04-24T09:21:59;19.73;;;5.75;;
24407;SDS011;12542;50.924;4.516;2023-04-24T09:24:31;11.27;;;5.47;;
24407;SDS011;12542;50.924;4.516;2023-04-24T09:26:57;11.77;;;4.72;;
24407;SDS011;12542;50.924;4.516;2023-04-24T09:29:24;11.02;;;5.40;;
24407;SDS011;12542;50.924;4.516;2023-04-24T09:31:49;13.27;;;4.82;;
24407;SDS011;12542;50.924;4.516;2023-04-24T09:34:18;13.65;;;3.95;;
24407;SDS011;12542;50.924;4.516;2023-04-24T09:36:50;13.43;;;4.55;;
24407;SDS011;12542;50.924;4.516;2023-04-24T09:39:17;15.45;;;4.55;;
24407;SDS011;12542;50.924;4.516;2023-04-24T09:41:50;12.15;;;4.47;;
24407;SDS011;12542;50.924;4.516;2023-04-24T09:46:54;14.90;;;4.95;;
24407;SDS011;12542;50.924;4.516;2023-04-24T09:49:26;21.90;;;4.40;;
24407;SDS011;12542;50.924;4.516;2023-04-24T09:51:52;10.43;;;3.80;;
24407;SDS011;12542;50.924;4.516;2023-04-24T09:54:27;10.27;;;3.83;;
24407;SDS011;12542;50.924;4.516;2023-04-24T09:56:56;9.43;;;3.28;;
24407;SDS011;12542;50.924;4.516;2023-04-24T09:59:22;8.68;;;2.75;;
24407;SDS011;12542;50.924;4.516;2023-04-24T10:01:48;8.25;;;3.13;;
24407;SDS011;12542;50.924;4.516;2023-04-24T10:04:18;8.13;;;3.17;;
24407;SDS011;12542;50.924;4.516;2023-04-24T10:06:49;11.00;;;3.70;;
24407;SDS011;12542;50.924;4.516;2023-04-24T10:09:19;8.05;;;3.30;;
24407;SDS011;12542;50.924;4.516;2023-04-24T10:11:49;10.98;;;3.95;;
24407;SDS011;12542;50.924;4.516;2023-04-24T10:14:17;11.18;;;3.88;;
24407;SDS011;12542;50.924;4.516;2023-04-24T10:16:45;10.57;;;3.97;;
24407;SDS011;12542;50.924;4.516;2023-04-24T10:19:12;8.32;;;3.25;;
24407;SDS011;12542;50.924;4.516;2023-04-24T10:21:39;11.93;;;4.15;;
24407;SDS011;12542;50.924;4.516;2023-04-24T10:24:10;11.50;;;3.22;;
24407;SDS011;12542;50.924;4.516;2023-04-24T10:26:37;8.70;;;3.60;;
24407;SDS011;12542;50.924;4.516;2023-04-24T10:29:05;7.65;;;3.78;;
24407;SDS011;12542;50.924;4.516;2023-04-24T10:31:36;13.63;;;3.55;;
24407;SDS011;12542;50.924;4.516;2023-04-24T10:34:03;9.25;;;3.10;;
24407;SDS011;12542;50.924;4.516;2023-04-24T10:36:30;8.23;;;3.15;;
24407;SDS011;12542;50.924;4.516;2023-04-24T10:38:58;10.23;;;4.03;;
24407;SDS011;12542;50.924;4.516;2023-04-24T10:41:26;8.88;;;4.00;;
24407;SDS011;12542;50.924;4.516;2023-04-24T10:44:07;9.98;;;3.65;;
24407;SDS011;12542;50.924;4.516;2023-04-24T10:46:35;6.43;;;3.25;;
24407;SDS011;12542;50.924;4.516;2023-04-24T10:49:07;8.45;;;3.65;;
24407;SDS011;12542;50.924;4.516;2023-04-24T10:51:44;6.85;;;2.90;;
24407;SDS011;12542;50.924;4.516;2023-04-24T10:59:44;11.73;;;3.42;;
24407;SDS011;12542;50.924;4.516;2023-04-24T11:02:11;8.10;;;3.10;;
24407;SDS011;12542;50.924;4.516;2023-04-24T11:04:40;14.27;;;3.78;;
24407;SDS011;12542;50.924;4.516;2023-04-24T11:07:08;9.23;;;3.50;;
24407;SDS011;12542;50.924;4.516;2023-04-24T11:09:38;9.43;;;3.72;;
24407;SDS011;12542;50.924;4.516;2023-04-24T11:12:08;13.50;;;3.72;;
24407;SDS011;12542;50.924;4.516;2023-04-24T11:20:08;7.97;;;3.47;;
24407;SDS011;12542;50.924;4.516;2023-04-24T11:22:37;8.88;;;3.45;;
24407;SDS011;12542;50.924;4.516;2023-04-24T11:25:06;6.80;;;3.67;;
24407;SDS011;12542;50.924;4.516;2023-04-24T11:27:42;7.25;;;3.03;;
24407;SDS011;12542;50.924;4.516;2023-04-24T11:30:09;11.32;;;4.20;;
24407;SDS011;12542;50.924;4.516;2023-04-24T11:32:39;10.93;;;3.95;;
24407;SDS011;12542;50.924;4.516;2023-04-24T11:35:07;12.13;;;3.95;;
24407;SDS011;12542;50.924;4.516;2023-04-24T11:40:14;9.07;;;3.40;;
24407;SDS011;12542;50.924;4.516;2023-04-24T11:42:42;9.80;;;3.70;;
24407;SDS011;12542;50.924;4.516;2023-04-24T11:45:16;6.97;;;3.38;;
24407;SDS011;12542;50.924;4.516;2023-04-24T11:47:52;9.90;;;3.88;;
24407;SDS011;12542;50.924;4.516;2023-04-24T11:50:18;8.20;;;3.22;;
24407;SDS011;12542;50.924;4.516;2023-04-24T11:52:47;9.48;;;4.03;;
24407;SDS011;12542;50.924;4.516;2023-04-24T11:57:41;7.88;;;3.92;;
24407;SDS011;12542;50.924;4.516;2023-04-24T12:00:14;10.70;;;3.50;;
24407;SDS011;12542;50.924;4.516;2023-04-24T12:02:45;8.77;;;3.72;;
24407;SDS011;12542;50.924;4.516;2023-04-24T12:05:24;10.23;;;3.75;;
24407;SDS011;12542;50.924;4.516;2023-04-24T12:07:53;8.80;;;3.75;;
24407;SDS011;12542;50.924;4.516;2023-04-24T12:10:20;6.53;;;3.22;;
24407;SDS011;12542;50.924;4.516;2023-04-24T12:12:46;7.00;;;3.25;;
24407;SDS011;12542;50.924;4.516;2023-04-24T12:15:17;10.20;;;3.38;;
24407;SDS011;12542;50.924;4.516;2023-04-24T12:17:45;9.85;;;3.65;;
24407;SDS011;12542;50.924;4.516;2023-04-24T12:20:11;9.27;;;3.80;;
24407;SDS011;12542;50.924;4.516;2023-04-24T12:22:47;9.60;;;3.95;;
24407;SDS011;12542;50.924;4.516;2023-04-24T12:25:14;8.05;;;3.50;;
24407;SDS011;12542;50.924;4.516;2023-04-24T12:27:44;6.82;;;3.22;;
24407;SDS011;12542;50.924;4.516;2023-04-24T12:30:12;6.53;;;2.90;;
24407;SDS011;12542;50.924;4.516;2023-04-24T12:32:46;7.63;;;3.25;;
24407;SDS011;12542;50.924;4.516;2023-04-24T12:35:13;9.75;;;3.88;;
24407;SDS011;12542;50.924;4.516;2023-04-24T12:37:44;9.18;;;3.42;;
24407;SDS011;12542;50.924;4.516;2023-04-24T12:40:11;8.20;;;4.88;;
24407;SDS011;12542;50.924;4.516;2023-04-24T12:42:50;10.82;;;3.88;;
24407;SDS011;12542;50.924;4.516;2023-04-24T12:45:17;8.55;;;3.50;;
24407;SDS011;12542;50.924;4.516;2023-04-24T12:47:46;7.40;;;3.35;;
24407;SDS011;12542;50.924;4.516;2023-04-24T12:50:13;6.65;;;3.25;;
24407;SDS011;12542;50.924;4.516;2023-04-24T12:52:40;6.68;;;3.50;;
24407;SDS011;12542;50.924;4.516;2023-04-24T12:55:06;6.95;;;3.47;;
24407;SDS011;12542;50.924;4.516;2023-04-24T12:57:34;4.63;;;2.97;;
24407;SDS011;12542;50.924;4.516;2023-04-24T13:00:01;14.13;;;3.53;;
24407;SDS011;12542;50.924;4.516;2023-04-24T13:02:28;8.30;;;3.90;;
24407;SDS011;12542;50.924;4.516;2023-04-24T13:04:55;8.25;;;3.60;;
24407;SDS011;12542;50.924;4.516;2023-04-24T13:07:22;6.95;;;2.90;;
24407;SDS011;12542;50.924;4.516;2023-04-24T13:09:48;9.68;;;3.50;;
24407;SDS011;12542;50.924;4.516;2023-04-24T13:12:15;7.28;;;2.83;;
24407;SDS011;12542;50.924;4.516;2023-04-24T13:14:41;7.65;;;2.80;;
24407;SDS011;12542;50.924;4.516;2023-04-24T13:17:07;8.73;;;2.83;;
24407;SDS011;12542;50.924;4.516;2023-04-24T13:19:37;5.97;;;2.90;;
24407;SDS011;12542;50.924;4.516;2023-04-24T13:22:05;9.38;;;2.53;;
24407;SDS011;12542;50.924;4.516;2023-04-24T13:24:32;3.95;;;2.00;;
24407;SDS011;12542;50.924;4.516;2023-04-24T13:26:58;8.45;;;2.70;;
24407;SDS011;12542;50.924;4.516;2023-04-24T13:29:25;5.82;;;2.20;;
24407;SDS011;12542;50.924;4.516;2023-04-24T13:31:51;6.10;;;2.50;;
24407;SDS011;12542;50.924;4.516;2023-04-24T13:34:17;4.97;;;2.22;;
24407;SDS011;12542;50.924;4.516;2023-04-24T13:36:43;5.93;;;2.63;;
24407;SDS011;12542;50.924;4.516;2023-04-24T13:39:09;6.13;;;2.55;;
24407;SDS011;12542;50.924;4.516;2023-04-24T13:41:35;8.48;;;2.65;;
24407;SDS011;12542;50.924;4.516;2023-04-24T13:44:02;8.73;;;2.65;;
24407;SDS011;12542;50.924;4.516;2023-04-24T13:46:28;9.35;;;2.63;;
24407;SDS011;12542;50.924;4.516;2023-04-24T13:48:54;5.22;;;2.35;;
24407;SDS011;12542;50.924;4.516;2023-04-24T13:51:19;7.88;;;2.65;;
24407;SDS011;12542;50.924;4.516;2023-04-24T13:53:48;8.23;;;2.88;;
24407;SDS011;12542;50.924;4.516;2023-04-24T13:56:15;4.20;;;1.90;;
24407;SDS011;12542;50.924;4.516;2023-04-24T13:58:41;4.95;;;1.85;;
24407;SDS011;12542;50.924;4.516;2023-04-24T14:01:08;6.90;;;1.80;;
24407;SDS011;12542;50.924;4.516;2023-04-24T14:03:34;6.85;;;2.25;;
24407;SDS011;12542;50.924;4.516;2023-04-24T14:06:02;6.47;;;2.05;;
24407;SDS011;12542;50.924;4.516;2023-04-24T14:08:27;3.38;;;1.67;;
24407;SDS011;12542;50.924;4.516;2023-04-24T14:10:53;3.45;;;1.50;;
24407;SDS011;12542;50.924;4.516;2023-04-24T14:13:20;6.05;;;1.73;;
24407;SDS011;12542;50.924;4.516;2023-04-24T14:15:46;4.43;;;1.65;;
24407;SDS011;12542;50.924;4.516;2023-04-24T14:18:11;6.75;;;1.33;;
24407;SDS011;12542;50.924;4.516;2023-04-24T14:20:37;6.15;;;2.10;;
24407;SDS011;12542;50.924;4.516;2023-04-24T14:23:03;5.63;;;1.25;;
24407;SDS011;12542;50.924;4.516;2023-04-24T14:25:29;5.45;;;1.65;;
24407;SDS011;12542;50.924;4.516;2023-04-24T14:27:55;5.35;;;2.00;;
24407;SDS011;12542;50.924;4.516;2023-04-24T14:30:21;6.53;;;2.00;;
24407;SDS011;12542;50.924;4.516;2023-04-24T14:32:47;5.50;;;1.98;;
24407;SDS011;12542;50.924;4.516;2023-04-24T14:35:13;5.22;;;1.55;;
24407;SDS011;12542;50.924;4.516;2023-04-24T14:37:39;4.60;;;1.92;;
24407;SDS011;12542;50.924;4.516;2023-04-24T14:40:07;6.97;;;2.67;;
24407;SDS011;12542;50.924;4.516;2023-04-24T14:42:34;7.10;;;2.88;;
24407;SDS011;12542;50.924;4.516;2023-04-24T14:45:01;4.45;;;1.60;;
24407;SDS011;12542;50.924;4.516;2023-04-24T14:47:27;4.20;;;1.50;;
24407;SDS011;12542;50.924;4.516;2023-04-24T14:49:54;4.80;;;1.90;;
24407;SDS011;12542;50.924;4.516;2023-04-24T14:52:19;4.68;;;2.20;;